Time;durP1;ratioP1;P1;durP2;ratioP2;P2;SDS_P1;SDS_P2;PMS_P1;PMS_P2;Temp;Humidity;BMP_temperature;BMP_pressure;BME280_temperature;BME280_humidity;BME280_pressure;Samples;Min_cycle;Max_cycle;Signal;HPM_P1;HPM_P2
2023/05/06 00:00:00;;;;;;;13.02;11.82;;;;;;;;;;5005858;28;20126;-80
2023/05/06 00:02:28;;;;;;;13.20;11.85;;;;;;;;;;4991687;28;20030;-79
2023/05/06 00:04:53;;;;;;;11.68;10.48;;;;;;;;;;5007405;28;20056;-79
2023/05/06 00:07:18;;;;;;;11.20;10.10;;;;;;;;;;5009040;28;20022;-79
2023/05/06 00:09:44;;;;;;;11.80;10.55;;;;;;;;;;5006962;28;20013;-79
2023/05/06 00:12:09;;;;;;;11.43;10.23;;;;;;;;;;5007740;28;20044;-80
2023/05/06 00:14:34;;;;;;;14.68;12.30;;;;;;;;;;5009997;28;20105;-79
2023/05/06 00:17:00;;;;;;;11.38;10.43;;;;;;;;;;4986122;28;20033;-79
2023/05/06 00:19:26;;;;;;;9.60;8.80;;;;;;;;;;5004305;28;20022;-79
2023/05/06 00:21:51;;;;;;;11.77;10.73;;;;;;;;;;5005340;28;20030;-80
2023/05/06 00:24:16;;;;;;;11.80;10.77;;;;;;;;;;5004209;28;20062;-79
2023/05/06 00:26:42;;;;;;;12.18;11.07;;;;;;;;;;5004646;28;20144;-79
2023/05/06 00:29:07;;;;;;;11.75;10.75;;;;;;;;;;4986289;28;20029;-79
2023/05/06 00:31:32;;;;;;;11.82;10.82;;;;;;;;;;4985469;28;20496;-78
2023/05/06 00:33:57;;;;;;;12.63;11.05;;;;;;;;;;5002190;28;20030;-79
2023/05/06 00:36:23;;;;;;;12.93;11.73;;;;;;;;;;5006310;28;20089;-79
2023/05/06 00:38:48;;;;;;;11.68;10.63;;;;;;;;;;5015035;28;20083;-80
2023/05/06 00:41:13;;;;;;;12.50;11.30;;;;;;;;;;5016292;28;20049;-80
2023/05/06 00:43:38;;;;;;;12.63;11.57;;;;;;;;;;5020673;28;20034;-81
2023/05/06 00:46:05;;;;;;;11.88;10.68;;;;;;;;;;5009945;28;20026;-80
2023/05/06 00:48:30;;;;;;;12.38;11.07;;;;;;;;;;5023148;28;20026;-81
2023/05/06 00:50:55;;;;;;;14.45;11.63;;;;;;;;;;5019284;28;20022;-80
2023/05/06 00:53:20;;;;;;;12.40;11.20;;;;;;;;;;5007541;28;20045;-79
2023/05/06 00:55:47;;;;;;;14.65;13.15;;;;;;;;;;4988021;28;20018;-79
2023/05/06 00:58:12;;;;;;;13.77;12.45;;;;;;;;;;5005532;28;20451;-79
2023/05/06 01:00:39;;;;;;;15.02;13.63;;;;;;;;;;4983715;28;20023;-78
2023/05/06 01:03:04;;;;;;;13.82;12.45;;;;;;;;;;4998767;28;20452;-79
2023/05/06 01:05:32;;;;;;;14.25;12.05;;;;;;;;;;5018247;28;20112;-80
2023/05/06 01:08:03;;;;;;;13.32;11.98;;;;;;;;;;5015640;28;20498;-80
2023/05/06 01:10:44;;;;;;;13.77;12.15;;;;;;;;;;4996325;28;20033;-80
2023/05/06 01:13:27;;;;;;;15.02;13.43;;;;;;;;;;5012848;28;20018;-80
2023/05/06 01:15:53;;;;;;;14.95;13.50;;;;;;;;;;5011472;28;20022;-80
2023/05/06 01:18:21;;;;;;;15.77;12.80;;;;;;;;;;4991793;28;20095;-80
2023/05/06 01:20:48;;;;;;;13.70;12.30;;;;;;;;;;5008002;28;20030;-80
2023/05/06 01:23:14;;;;;;;13.30;12.10;;;;;;;;;;5010703;28;20470;-80
2023/05/06 01:25:39;;;;;;;13.98;12.70;;;;;;;;;;4991602;28;20411;-80
2023/05/06 01:28:11;;;;;;;13.98;12.57;;;;;;;;;;5008209;28;20107;-80
2023/05/06 01:30:56;;;;;;;13.10;11.70;;;;;;;;;;5010842;28;20507;-80
2023/05/06 01:33:43;;;;;;;13.85;12.45;;;;;;;;;;4990342;28;20106;-80
2023/05/06 01:36:20;;;;;;;13.50;12.07;;;;;;;;;;5014716;28;20025;-80
2023/05/06 01:38:51;;;;;;;15.68;12.63;;;;;;;;;;5014002;28;20081;-80
2023/05/06 01:41:17;;;;;;;12.80;11.50;;;;;;;;;;5019109;28;20048;-81
2023/05/06 01:43:43;;;;;;;16.77;13.25;;;;;;;;;;5021827;28;20113;-80
2023/05/06 01:46:12;;;;;;;15.10;13.55;;;;;;;;;;5023308;28;20018;-80
2023/05/06 01:48:37;;;;;;;16.17;14.40;;;;;;;;;;5019500;28;20021;-80
2023/05/06 01:51:03;;;;;;;13.55;12.32;;;;;;;;;;4999400;28;20018;-80
2023/05/06 01:53:28;;;;;;;13.20;12.00;;;;;;;;;;5023388;28;20029;-80
2023/05/06 01:55:53;;;;;;;17.02;13.15;;;;;;;;;;5024334;28;20521;-80
2023/05/06 01:58:19;;;;;;;15.90;13.60;;;;;;;;;;5023013;28;20021;-81
2023/05/06 02:00:44;;;;;;;16.15;12.70;;;;;;;;;;5006430;28;20033;-80
2023/05/06 02:03:11;;;;;;;18.70;14.15;;;;;;;;;;5031788;28;20029;-80
2023/05/06 02:05:36;;;;;;;15.93;14.25;;;;;;;;;;5040999;28;20024;-82
2023/05/06 02:13:11;;;;;;;13.75;12.38;;;;;;;;;;5938143;23;20062;-81
2023/05/06 02:15:37;;;;;;;12.82;11.60;;;;;;;;;;4995587;28;20055;-80
2023/05/06 02:18:02;;;;;;;12.70;11.38;;;;;;;;;;4990609;28;20460;-81
2023/05/06 02:20:28;;;;;;;12.30;11.10;;;;;;;;;;4992687;28;20019;-82
2023/05/06 02:22:53;;;;;;;14.35;12.90;;;;;;;;;;4992874;28;20569;-81
2023/05/06 02:33:03;;;;;;;18.75;15.40;;;;;;;;;;5744281;22;20081;-82
2023/05/06 02:35:29;;;;;;;13.60;12.27;;;;;;;;;;5018776;28;19998;-83
2023/05/06 02:37:54;;;;;;;17.05;15.32;;;;;;;;;;5001809;28;20026;-81
2023/05/06 02:40:20;;;;;;;13.88;12.48;;;;;;;;;;5017769;28;20009;-80
2023/05/06 02:42:45;;;;;;;14.90;12.20;;;;;;;;;;5017978;28;20011;-81
2023/05/06 02:45:11;;;;;;;16.45;14.70;;;;;;;;;;5001714;28;20034;-80
2023/05/06 02:47:36;;;;;;;16.67;14.85;;;;;;;;;;5019024;28;20073;-80
2023/05/06 02:50:02;;;;;;;16.63;14.27;;;;;;;;;;5017461;28;20026;-80
2023/05/06 02:52:27;;;;;;;17.50;14.52;;;;;;;;;;5018848;28;20022;-81
2023/05/06 02:54:53;;;;;;;14.27;12.90;;;;;;;;;;5018081;28;20034;-80
2023/05/06 02:57:19;;;;;;;13.95;12.70;;;;;;;;;;5019846;28;20018;-79
2023/05/06 02:59:44;;;;;;;15.60;12.43;;;;;;;;;;5017100;28;20055;-80
2023/05/06 03:02:10;;;;;;;14.10;12.70;;;;;;;;;;5017035;28;20065;-80
2023/05/06 03:04:35;;;;;;;12.60;11.27;;;;;;;;;;5010038;28;20038;-80
2023/05/06 03:07:00;;;;;;;14.63;13.15;;;;;;;;;;4997428;28;20031;-79
2023/05/06 03:09:26;;;;;;;13.02;11.73;;;;;;;;;;5009115;28;20037;-79
2023/05/06 03:11:51;;;;;;;13.82;12.40;;;;;;;;;;4998292;28;20034;-79
2023/05/06 03:14:17;;;;;;;15.38;12.45;;;;;;;;;;4989154;28;20022;-81
2023/05/06 03:16:42;;;;;;;13.80;12.40;;;;;;;;;;5013570;28;20082;-80
2023/05/06 03:19:07;;;;;;;13.02;11.82;;;;;;;;;;4993007;28;20025;-80
2023/05/06 03:21:33;;;;;;;12.98;11.80;;;;;;;;;;4983017;28;20066;-78
2023/05/06 03:23:58;;;;;;;13.38;12.02;;;;;;;;;;4997227;28;20038;-80
2023/05/06 03:26:24;;;;;;;12.70;11.32;;;;;;;;;;4994975;28;20826;-80
2023/05/06 03:28:49;;;;;;;13.73;12.50;;;;;;;;;;5007914;28;20029;-81
2023/05/06 03:31:15;;;;;;;19.35;16.83;;;;;;;;;;4997655;28;20018;-81
2023/05/06 03:33:40;;;;;;;15.93;13.82;;;;;;;;;;4996501;28;20070;-81
2023/05/06 03:36:06;;;;;;;12.48;10.40;;;;;;;;;;5013295;28;20038;-81
2023/05/06 03:38:31;;;;;;;16.45;14.85;;;;;;;;;;4993646;28;20483;-79
2023/05/06 03:40:57;;;;;;;14.43;12.93;;;;;;;;;;5003002;28;20022;-80
2023/05/06 03:43:22;;;;;;;22.33;19.33;;;;;;;;;;4997961;28;20026;-80
2023/05/06 03:45:48;;;;;;;21.23;16.10;;;;;;;;;;4997174;28;20030;-80
2023/05/06 03:48:13;;;;;;;16.90;15.20;;;;;;;;;;4988630;28;20064;-80
2023/05/06 03:50:39;;;;;;;15.80;14.30;;;;;;;;;;5008995;28;20018;-80
2023/05/06 03:53:04;;;;;;;13.90;12.60;;;;;;;;;;4980824;28;20591;-79
2023/05/06 03:55:29;;;;;;;15.13;12.65;;;;;;;;;;5001413;28;20014;-80
2023/05/06 04:03:05;;;;;;;15.93;14.32;;;;;;;;;;6131303;23;20024;-77
2023/05/06 04:05:30;;;;;;;12.98;11.77;;;;;;;;;;5052411;28;20081;-81
2023/05/06 04:07:56;;;;;;;10.35;9.25;;;;;;;;;;5039089;28;20017;-82
2023/05/06 04:10:21;;;;;;;13.23;11.95;;;;;;;;;;5350539;23;20020;-75
2023/05/06 04:12:47;;;;;;;13.73;10.60;;;;;;;;;;5016730;28;20029;-80
2023/05/06 04:20:22;;;;;;;6.97;6.38;;;;;;;;;;5942124;23;21908;-86
2023/05/06 04:22:47;;;;;;;7.07;6.57;;;;;;;;;;4965217;28;20039;-85
2023/05/06 04:25:13;;;;;;;6.77;6.20;;;;;;;;;;4984182;28;20471;-84
2023/05/06 04:27:39;;;;;;;5.75;5.25;;;;;;;;;;4964024;28;20351;-83
2023/05/06 04:30:04;;;;;;;6.70;6.07;;;;;;;;;;4981758;28;20464;-83
2023/05/06 04:32:30;;;;;;;7.00;6.50;;;;;;;;;;4980682;28;20046;-82
2023/05/06 04:34:56;;;;;;;5.57;5.13;;;;;;;;;;4982428;28;20072;-82
2023/05/06 04:37:21;;;;;;;6.60;6.13;;;;;;;;;;4963670;28;20089;-82
2023/05/06 04:39:47;;;;;;;6.53;6.03;;;;;;;;;;4982446;28;20018;-82
2023/05/06 04:42:13;;;;;;;7.20;6.70;;;;;;;;;;4973239;28;20807;-83
2023/05/06 04:44:38;;;;;;;7.75;7.15;;;;;;;;;;4977243;28;20040;-83
2023/05/06 04:47:04;;;;;;;8.10;7.50;;;;;;;;;;4982842;28;20411;-82
2023/05/06 04:49:30;;;;;;;8.52;7.90;;;;;;;;;;4981178;28;20054;-82
2023/05/06 04:51:55;;;;;;;9.52;8.73;;;;;;;;;;4964813;28;20030;-85
2023/05/06 04:54:21;;;;;;;11.00;10.10;;;;;;;;;;4964662;28;20033;-84
2023/05/06 04:56:46;;;;;;;11.10;10.20;;;;;;;;;;5011463;28;20014;-82
2023/05/06 05:06:57;;;;;;;17.17;15.48;;;;;;;;;;6036573;23;19924;-79
2023/05/06 05:09:22;;;;;;;15.65;13.75;;;;;;;;;;5008809;28;20022;-81
2023/05/06 05:11:48;;;;;;;13.95;12.77;;;;;;;;;;5002461;28;20165;-84
2023/05/06 05:14:13;;;;;;;15.35;13.85;;;;;;;;;;4999350;28;20037;-80
2023/05/06 05:16:38;;;;;;;13.27;12.07;;;;;;;;;;4996115;28;20043;-81
2023/05/06 05:19:05;;;;;;;14.85;13.45;;;;;;;;;;4998988;28;20050;-81
2023/05/06 05:21:30;;;;;;;13.85;12.40;;;;;;;;;;5014480;28;20029;-81
2023/05/06 05:23:55;;;;;;;12.70;11.55;;;;;;;;;;5001474;28;20093;-80
2023/05/06 05:26:21;;;;;;;14.40;13.10;;;;;;;;;;5015167;28;20018;-80
2023/05/06 05:28:46;;;;;;;13.90;12.68;;;;;;;;;;5008483;28;20116;-80
2023/05/06 05:31:11;;;;;;;12.82;11.73;;;;;;;;;;5013944;28;20022;-80
2023/05/06 05:33:36;;;;;;;12.55;11.45;;;;;;;;;;5019580;28;20033;-81
2023/05/06 05:36:02;;;;;;;13.52;12.30;;;;;;;;;;5003131;28;20018;-81
2023/05/06 05:38:28;;;;;;;13.30;12.15;;;;;;;;;;5017152;28;20027;-80
2023/05/06 05:40:53;;;;;;;13.15;11.90;;;;;;;;;;5011692;28;20114;-81
2023/05/06 05:43:20;;;;;;;14.53;13.30;;;;;;;;;;4998852;28;20018;-82
2023/05/06 05:45:45;;;;;;;13.43;12.32;;;;;;;;;;4971768;28;20316;-81
2023/05/06 05:48:10;;;;;;;13.37;12.10;;;;;;;;;;4984956;28;20031;-82
2023/05/06 05:50:36;;;;;;;11.88;10.98;;;;;;;;;;4984520;28;20269;-83
2023/05/06 05:53:01;;;;;;;12.45;11.45;;;;;;;;;;4982361;28;20038;-83
2023/05/06 05:55:28;;;;;;;12.97;11.97;;;;;;;;;;4984901;28;20079;-81
2023/05/06 05:57:53;;;;;;;12.65;11.50;;;;;;;;;;4964938;28;20272;-80
2023/05/06 06:00:19;;;;;;;12.32;11.32;;;;;;;;;;4984415;28;20465;-78
2023/05/06 06:02:44;;;;;;;12.57;11.40;;;;;;;;;;4983502;28;20050;-82
2023/05/06 06:05:10;;;;;;;12.38;11.38;;;;;;;;;;4969493;28;20408;-82
2023/05/06 06:07:35;;;;;;;12.80;11.70;;;;;;;;;;4971048;28;20034;-84
2023/05/06 06:10:00;;;;;;;12.55;11.55;;;;;;;;;;4965455;28;20113;-82
2023/05/06 06:12:26;;;;;;;14.20;12.85;;;;;;;;;;4982653;28;20488;-79
2023/05/06 06:14:51;;;;;;;14.52;13.13;;;;;;;;;;4964665;28;20056;-83
2023/05/06 06:17:16;;;;;;;14.10;12.90;;;;;;;;;;4965848;28;20069;-83
2023/05/06 06:19:44;;;;;;;14.68;13.40;;;;;;;;;;4980935;28;20351;-82
2023/05/06 06:22:09;;;;;;;14.85;13.50;;;;;;;;;;4966477;28;20061;-83
2023/05/06 06:24:35;;;;;;;15.82;14.55;;;;;;;;;;4966080;28;20104;-85
2023/05/06 06:27:00;;;;;;;13.77;12.65;;;;;;;;;;4980877;28;20024;-84
2023/05/06 06:29:26;;;;;;;12.77;11.55;;;;;;;;;;4974132;28;20027;-85
2023/05/06 06:31:51;;;;;;;11.98;10.95;;;;;;;;;;4975711;28;20023;-83
2023/05/06 06:34:16;;;;;;;12.73;11.43;;;;;;;;;;4976261;28;20405;-85
2023/05/06 06:36:44;;;;;;;11.50;10.23;;;;;;;;;;4968646;28;20278;-82
2023/05/06 06:39:09;;;;;;;15.25;10.88;;;;;;;;;;4970891;28;20780;-85
2023/05/06 06:41:35;;;;;;;11.05;10.13;;;;;;;;;;4974286;28;20022;-85
2023/05/06 06:44:00;;;;;;;11.23;10.40;;;;;;;;;;4978061;28;20061;-87
2023/05/06 06:46:25;;;;;;;10.77;9.87;;;;;;;;;;4972637;28;20065;-85
2023/05/06 06:48:50;;;;;;;10.17;9.47;;;;;;;;;;4964373;28;20278;-86
2023/05/06 06:51:15;;;;;;;9.03;8.33;;;;;;;;;;4974256;28;20348;-87
2023/05/06 06:53:41;;;;;;;10.43;9.53;;;;;;;;;;4952796;28;20026;-86
2023/05/06 06:56:13;;;;;;;9.82;9.13;;;;;;;;;;4961856;28;20042;-85
2023/05/06 06:58:38;;;;;;;9.75;8.88;;;;;;;;;;4966961;28;20023;-89
2023/05/06 07:01:03;;;;;;;9.68;8.98;;;;;;;;;;4972847;28;20093;-84
2023/05/06 07:03:29;;;;;;;10.00;9.23;;;;;;;;;;4978812;28;20030;-86
2023/05/06 07:05:54;;;;;;;10.02;8.98;;;;;;;;;;4982989;28;20467;-86
2023/05/06 07:08:21;;;;;;;10.70;9.70;;;;;;;;;;4963445;28;20053;-87
2023/05/06 07:10:46;;;;;;;8.55;7.95;;;;;;;;;;4978515;28;20109;-85
2023/05/06 07:13:11;;;;;;;8.90;8.13;;;;;;;;;;4954607;28;20204;-84
2023/05/06 07:15:37;;;;;;;8.05;7.45;;;;;;;;;;4955604;28;20266;-85
2023/05/06 07:18:02;;;;;;;9.05;8.35;;;;;;;;;;4995323;28;20029;-87
2023/05/06 07:20:27;;;;;;;8.65;7.88;;;;;;;;;;4987553;28;20026;-84
2023/05/06 07:22:53;;;;;;;8.80;8.10;;;;;;;;;;4965263;28;20488;-86
2023/05/06 07:25:18;;;;;;;8.32;7.63;;;;;;;;;;4965809;28;20302;-81
2023/05/06 07:27:43;;;;;;;8.80;7.80;;;;;;;;;;4967164;28;20493;-83
2023/05/06 07:30:09;;;;;;;9.40;8.60;;;;;;;;;;4970451;28;20357;-84
2023/05/06 07:32:34;;;;;;;9.30;8.57;;;;;;;;;;4971099;28;20019;-84
2023/05/06 07:35:00;;;;;;;9.57;8.98;;;;;;;;;;4970387;28;20507;-85
2023/05/06 07:37:25;;;;;;;8.98;8.35;;;;;;;;;;4962329;28;20469;-84
2023/05/06 07:39:51;;;;;;;8.93;8.13;;;;;;;;;;4980389;28;20030;-86
2023/05/06 07:42:16;;;;;;;8.90;8.20;;;;;;;;;;4955299;28;20046;-82
2023/05/06 07:44:41;;;;;;;11.17;10.27;;;;;;;;;;4971899;28;20038;-78
2023/05/06 07:47:08;;;;;;;9.18;8.40;;;;;;;;;;4974166;28;20318;-81
2023/05/06 07:49:34;;;;;;;9.53;8.67;;;;;;;;;;4974557;28;20022;-84
2023/05/06 07:52:00;;;;;;;9.85;9.05;;;;;;;;;;4964123;28;20332;-80
2023/05/06 07:54:25;;;;;;;11.15;9.20;;;;;;;;;;4958206;28;20455;-81
2023/05/06 07:56:51;;;;;;;9.65;8.68;;;;;;;;;;4978762;28;20029;-81
2023/05/06 07:59:16;;;;;;;9.60;8.77;;;;;;;;;;4975514;28;20098;-82
2023/05/06 08:01:41;;;;;;;12.53;11.17;;;;;;;;;;4974409;28;20057;-81
2023/05/06 08:04:07;;;;;;;10.70;9.75;;;;;;;;;;4964485;28;20372;-81
2023/05/06 08:06:32;;;;;;;10.40;9.40;;;;;;;;;;4973507;28;20034;-80
2023/05/06 08:08:58;;;;;;;13.30;10.68;;;;;;;;;;4970251;28;20669;-82
2023/05/06 08:11:23;;;;;;;14.40;13.20;;;;;;;;;;4977357;28;20060;-82
2023/05/06 08:13:48;;;;;;;14.23;12.83;;;;;;;;;;4980411;28;20487;-82
2023/05/06 08:16:15;;;;;;;13.45;10.80;;;;;;;;;;4979386;28;20276;-83
2023/05/06 08:18:40;;;;;;;11.25;10.35;;;;;;;;;;4963403;28;20041;-83
2023/05/06 08:21:06;;;;;;;10.00;9.13;;;;;;;;;;4962795;28;20451;-80
2023/05/06 08:23:31;;;;;;;11.13;10.15;;;;;;;;;;4980264;28;20116;-88
2023/05/06 08:25:58;;;;;;;11.95;10.77;;;;;;;;;;4980566;28;20050;-85
2023/05/06 08:28:23;;;;;;;10.70;9.60;;;;;;;;;;4980254;28;20022;-83
2023/05/06 08:30:50;;;;;;;13.30;11.90;;;;;;;;;;4980579;28;20041;-82
2023/05/06 08:33:15;;;;;;;10.75;9.75;;;;;;;;;;4954020;28;21057;-85
2023/05/06 08:35:40;;;;;;;9.88;8.90;;;;;;;;;;4975368;28;20033;-78
2023/05/06 08:38:06;;;;;;;12.10;9.23;;;;;;;;;;4977679;28;20026;-83
2023/05/06 08:40:32;;;;;;;9.50;8.17;;;;;;;;;;4980971;28;20015;-84
2023/05/06 08:42:58;;;;;;;11.35;9.40;;;;;;;;;;4963540;28;20273;-87
2023/05/06 08:45:23;;;;;;;12.52;11.23;;;;;;;;;;4977101;28;20054;-84
2023/05/06 08:47:49;;;;;;;10.18;9.18;;;;;;;;;;4966802;28;20033;-84
2023/05/06 08:50:14;;;;;;;11.30;9.40;;;;;;;;;;4952653;28;20141;-86
2023/05/06 08:52:40;;;;;;;9.85;7.75;;;;;;;;;;4943009;28;20022;-86
2023/05/06 08:55:05;;;;;;;7.25;6.55;;;;;;;;;;4956739;28;20027;-85
2023/05/06 08:57:31;;;;;;;7.75;7.10;;;;;;;;;;4956767;28;20356;-86
2023/05/06 08:59:57;;;;;;;7.78;6.28;;;;;;;;;;4963814;28;20106;-86
2023/05/06 09:02:23;;;;;;;7.05;6.00;;;;;;;;;;4967268;28;20212;-86
2023/05/06 09:04:50;;;;;;;6.47;5.88;;;;;;;;;;4959033;28;20038;-88
2023/05/06 09:07:17;;;;;;;7.40;6.90;;;;;;;;;;4962511;28;20381;-91
2023/05/06 09:09:44;;;;;;;13.52;7.63;;;;;;;;;;4967794;28;20045;-87
2023/05/06 09:12:10;;;;;;;9.20;7.20;;;;;;;;;;4942204;28;20392;-86
2023/05/06 09:14:35;;;;;;;8.20;6.60;;;;;;;;;;4963720;28;20026;-84
2023/05/06 09:17:01;;;;;;;11.73;7.90;;;;;;;;;;4960690;28;20518;-83
2023/05/06 09:19:27;;;;;;;8.43;7.60;;;;;;;;;;4944774;28;20300;-85
2023/05/06 09:21:52;;;;;;;7.45;6.70;;;;;;;;;;4947952;28;20069;-84
2023/05/06 09:24:17;;;;;;;6.40;4.82;;;;;;;;;;4954165;28;20038;-84
2023/05/06 09:26:47;;;;;;;8.15;4.30;;;;;;;;;;4981361;28;20060;-85
2023/05/06 09:29:13;;;;;;;5.45;4.60;;;;;;;;;;4979771;28;20026;-85
2023/05/06 09:31:48;;;;;;;4.68;4.38;;;;;;;;;;4964288;28;20026;-86
2023/05/06 09:34:14;;;;;;;7.38;4.50;;;;;;;;;;4981028;28;20015;-85
2023/05/06 09:36:40;;;;;;;6.57;4.53;;;;;;;;;;4958784;28;20025;-88
2023/05/06 09:39:27;;;;;;;5.07;3.83;;;;;;;;;;4948792;28;20035;-89
2023/05/06 09:41:54;;;;;;;4.10;3.75;;;;;;;;;;4949853;28;20642;-92
2023/05/06 09:44:21;;;;;;;5.57;4.25;;;;;;;;;;4945883;28;20030;-88
2023/05/06 09:47:08;;;;;;;5.93;4.30;;;;;;;;;;4967319;28;20501;-86
2023/05/06 09:49:57;;;;;;;7.22;3.80;;;;;;;;;;4962814;28;20078;-87
2023/05/06 09:52:23;;;;;;;5.93;3.65;;;;;;;;;;4968484;28;20045;-90
2023/05/06 09:55:04;;;;;;;7.20;3.70;;;;;;;;;;4950399;28;20039;-85
2023/05/06 09:57:49;;;;;;;6.40;3.72;;;;;;;;;;4973968;28;20019;-90
2023/05/06 10:00:35;;;;;;;5.40;3.67;;;;;;;;;;4963587;28;20042;-88
2023/05/06 10:03:01;;;;;;;4.93;3.17;;;;;;;;;;4968582;28;20023;-87
2023/05/06 10:18:12;;;;;;;5.18;3.03;;;;;;;;;;4977932;28;20065;-86
2023/05/06 10:21:29;;;;;;;3.20;3.00;;;;;;;;;;4980697;28;20155;-85
2023/05/06 10:23:58;;;;;;;3.28;2.95;;;;;;;;;;4929447;29;20062;-87
2023/05/06 10:26:26;;;;;;;6.78;3.55;;;;;;;;;;4952273;28;20050;-85
2023/05/06 10:28:53;;;;;;;5.13;3.00;;;;;;;;;;4952164;28;20588;-81
2023/05/06 10:31:19;;;;;;;4.55;3.03;;;;;;;;;;4977918;28;20022;-86
2023/05/06 10:33:46;;;;;;;4.78;2.90;;;;;;;;;;4963091;28;20636;-84
2023/05/06 10:36:26;;;;;;;5.03;2.83;;;;;;;;;;4964839;28;20097;-84
2023/05/06 10:42:11;;;;;;;4.28;3.20;;;;;;;;;;4980671;28;20040;-89
2023/05/06 10:47:51;;;;;;;5.15;2.58;;;;;;;;;;4978436;28;20966;-86
2023/05/06 10:50:27;;;;;;;3.10;2.80;;;;;;;;;;4974868;28;20564;-82
2023/05/06 10:52:59;;;;;;;4.88;2.47;;;;;;;;;;4962132;28;20045;-85
2023/05/06 10:55:26;;;;;;;5.25;3.10;;;;;;;;;;4947033;28;20042;-85
2023/05/06 10:57:57;;;;;;;3.55;2.78;;;;;;;;;;4960416;28;20070;-84
2023/05/06 11:00:59;;;;;;;2.65;2.45;;;;;;;;;;4957790;28;20030;-88
2023/05/06 11:04:02;;;;;;;3.95;2.85;;;;;;;;;;4968608;28;20098;-90
2023/05/06 13:13:27;;;;;;;4.38;3.08;;;;;;;;;;5012105;23;20061;-93
2023/05/06 13:15:53;;;;;;;4.15;3.08;;;;;;;;;;4971271;28;20259;-94
2023/05/06 13:18:18;;;;;;;3.10;2.85;;;;;;;;;;4984529;28;20419;-95
2023/05/06 13:20:44;;;;;;;4.55;3.05;;;;;;;;;;4985615;28;20897;-93
2023/05/06 13:23:10;;;;;;;2.90;2.70;;;;;;;;;;4980268;28;20036;-96
2023/05/06 13:25:35;;;;;;;4.80;2.92;;;;;;;;;;4991292;28;20045;-91
2023/05/06 13:28:01;;;;;;;3.17;2.88;;;;;;;;;;5006675;28;20031;-93
2023/05/06 13:30:26;;;;;;;4.22;2.88;;;;;;;;;;4991231;28;20105;-96
2023/05/06 13:32:51;;;;;;;3.63;2.78;;;;;;;;;;4992130;28;20029;-94
2023/05/06 13:35:17;;;;;;;3.70;3.08;;;;;;;;;;4987459;28;20037;-96
2023/05/06 13:37:42;;;;;;;5.78;2.92;;;;;;;;;;4980827;28;20021;-89
2023/05/06 13:40:08;;;;;;;3.17;2.87;;;;;;;;;;5009073;28;20018;-94
2023/05/06 13:42:33;;;;;;;3.22;2.92;;;;;;;;;;4986262;28;20401;-96
2023/05/06 13:44:58;;;;;;;3.78;2.83;;;;;;;;;;4974944;28;20038;-88
2023/05/06 13:47:25;;;;;;;5.07;3.03;;;;;;;;;;5006976;28;20010;-95
2023/05/06 13:49:50;;;;;;;3.40;2.67;;;;;;;;;;4988451;28;20109;-92
2023/05/06 13:52:16;;;;;;;4.27;3.00;;;;;;;;;;4988820;28;20229;-88
2023/05/06 13:54:41;;;;;;;2.92;2.72;;;;;;;;;;4986856;28;20670;-90
2023/05/06 13:57:06;;;;;;;3.28;2.97;;;;;;;;;;4989908;28;20022;-96
2023/05/06 13:59:32;;;;;;;6.25;2.80;;;;;;;;;;4987908;28;20213;-90
2023/05/06 14:01:57;;;;;;;2.40;2.20;;;;;;;;;;4990963;28;20483;-90
2023/05/06 14:04:22;;;;;;;2.50;2.30;;;;;;;;;;5003318;28;20037;-93
2023/05/06 14:06:48;;;;;;;5.20;2.78;;;;;;;;;;4989348;28;20057;-94
2023/05/06 14:09:13;;;;;;;2.72;2.28;;;;;;;;;;4988781;28;20028;-94
2023/05/06 14:11:38;;;;;;;2.60;2.40;;;;;;;;;;4989235;28;20014;-95
2023/05/06 14:14:04;;;;;;;5.70;2.45;;;;;;;;;;4992716;28;20014;-91
2023/05/06 14:16:30;;;;;;;3.72;2.50;;;;;;;;;;4987290;28;20125;-95
2023/05/06 14:18:55;;;;;;;2.90;2.60;;;;;;;;;;4990988;28;20225;-93
2023/05/06 14:21:20;;;;;;;3.22;2.58;;;;;;;;;;4991953;28;20018;-96
2023/05/06 14:23:46;;;;;;;2.40;2.20;;;;;;;;;;5009679;28;20352;-95
2023/05/06 14:26:11;;;;;;;3.40;2.53;;;;;;;;;;5009391;28;20046;-96
2023/05/06 14:28:36;;;;;;;3.20;2.30;;;;;;;;;;4992439;28;20095;-96
2023/05/06 14:31:02;;;;;;;3.42;2.13;;;;;;;;;;4989042;28;20033;-91
2023/05/06 14:33:27;;;;;;;4.03;2.30;;;;;;;;;;5004474;28;20486;-96
2023/05/06 14:35:52;;;;;;;2.85;2.45;;;;;;;;;;4992000;28;20025;-94
2023/05/06 14:38:18;;;;;;;3.85;2.58;;;;;;;;;;5005725;28;20113;-94
2023/05/06 14:40:44;;;;;;;3.67;2.65;;;;;;;;;;4991065;28;20116;-95
2023/05/06 14:43:09;;;;;;;4.43;2.50;;;;;;;;;;5002347;28;20117;-96
2023/05/06 14:45:34;;;;;;;2.38;2.17;;;;;;;;;;5008156;28;20042;-95
2023/05/06 14:48:00;;;;;;;2.97;2.40;;;;;;;;;;4992732;28;20385;-94
2023/05/06 14:50:25;;;;;;;3.42;2.78;;;;;;;;;;4992361;28;20020;-94
2023/05/06 14:52:50;;;;;;;3.92;2.40;;;;;;;;;;4991350;28;20121;-94
2023/05/06 14:55:16;;;;;;;9.02;2.90;;;;;;;;;;5012015;28;20484;-89
2023/05/06 14:57:41;;;;;;;3.67;2.50;;;;;;;;;;5009230;28;20079;-91
2023/05/06 15:00:11;;;;;;;5.57;2.63;;;;;;;;;;4990973;28;20017;-90
2023/05/06 15:02:37;;;;;;;5.07;2.70;;;;;;;;;;4987192;28;20050;-92
2023/05/06 15:05:02;;;;;;;4.85;2.72;;;;;;;;;;4992763;28;20061;-96
2023/05/06 15:07:27;;;;;;;2.63;2.42;;;;;;;;;;5003863;28;20049;-88
2023/05/06 15:09:53;;;;;;;2.83;2.55;;;;;;;;;;4979130;28;20469;-94
2023/05/06 15:12:20;;;;;;;2.80;2.50;;;;;;;;;;5002220;28;20119;-89
2023/05/06 15:14:45;;;;;;;3.10;2.80;;;;;;;;;;4985217;28;20022;-90
2023/05/06 15:17:12;;;;;;;3.22;2.90;;;;;;;;;;4984410;28;20121;-89
2023/05/06 15:19:37;;;;;;;4.25;3.08;;;;;;;;;;4983909;28;20061;-91
2023/05/06 15:22:03;;;;;;;5.77;2.87;;;;;;;;;;4986939;28;20088;-89
2023/05/06 15:24:28;;;;;;;3.70;2.50;;;;;;;;;;4980714;28;20648;-88
2023/05/06 15:26:53;;;;;;;3.15;2.90;;;;;;;;;;4985497;28;20486;-87
2023/05/06 15:29:19;;;;;;;3.00;2.60;;;;;;;;;;4983122;28;20508;-88
2023/05/06 15:31:44;;;;;;;3.58;2.75;;;;;;;;;;5002386;28;20025;-91
2023/05/06 15:34:10;;;;;;;4.30;2.60;;;;;;;;;;4984990;28;20105;-87
2023/05/06 15:36:36;;;;;;;4.63;2.78;;;;;;;;;;4983970;28;20017;-89
2023/05/06 15:39:01;;;;;;;3.63;2.50;;;;;;;;;;4985459;28;20033;-88
2023/05/06 15:41:29;;;;;;;3.53;2.42;;;;;;;;;;4984158;28;20033;-89
2023/05/06 15:43:58;;;;;;;3.65;2.85;;;;;;;;;;4984633;28;20591;-86
2023/05/06 15:46:23;;;;;;;4.75;2.75;;;;;;;;;;5004861;28;20014;-90
2023/05/06 15:48:49;;;;;;;3.08;2.60;;;;;;;;;;4987909;28;20026;-90
2023/05/06 15:51:15;;;;;;;4.85;2.85;;;;;;;;;;4984477;28;20054;-92
2023/05/06 15:53:40;;;;;;;2.80;2.60;;;;;;;;;;4988197;28;20022;-94
2023/05/06 15:56:06;;;;;;;3.10;2.80;;;;;;;;;;4988098;28;20022;-94
2023/05/06 15:58:35;;;;;;;5.60;3.30;;;;;;;;;;4985153;28;20026;-93
2023/05/06 16:01:00;;;;;;;3.55;2.35;;;;;;;;;;4991871;28;20613;-94
2023/05/06 16:03:26;;;;;;;5.18;2.92;;;;;;;;;;4991209;28;20108;-96
2023/05/06 16:05:55;;;;;;;3.40;3.10;;;;;;;;;;5013883;28;20534;-96
2023/05/06 16:08:21;;;;;;;3.38;3.08;;;;;;;;;;4994239;28;20617;-96
2023/05/06 16:10:46;;;;;;;3.60;2.83;;;;;;;;;;5005363;28;20021;-94
2023/05/06 16:13:13;;;;;;;3.67;3.22;;;;;;;;;;5007614;28;20901;-96
2023/05/06 16:15:42;;;;;;;;;;;;;;;;;;5010441;28;20026;-95
2023/05/06 16:18:07;;;;;;;4.50;3.37;;;;;;;;;;4988596;28;19940;-96
2023/05/06 16:20:33;;;;;;;3.45;3.15;;;;;;;;;;4991443;28;20057;-96
2023/05/06 16:23:00;;;;;;;3.70;3.38;;;;;;;;;;4993836;28;20028;-95
2023/05/06 16:25:25;;;;;;;4.90;3.40;;;;;;;;;;5015667;28;20041;-94
2023/05/06 16:27:51;;;;;;;3.30;3.00;;;;;;;;;;5023180;28;20097;-92
2023/05/06 16:30:16;;;;;;;4.25;3.08;;;;;;;;;;5015620;28;20036;-95
2023/05/06 16:32:42;;;;;;;4.63;3.20;;;;;;;;;;5014868;28;20104;-93
2023/05/06 16:35:08;;;;;;;3.17;2.90;;;;;;;;;;4990631;28;20119;-92
2023/05/06 16:37:35;;;;;;;7.68;3.25;;;;;;;;;;5015039;28;20038;-92
2023/05/06 16:40:00;;;;;;;5.13;3.00;;;;;;;;;;4988065;28;20069;-93
2023/05/06 16:42:26;;;;;;;3.45;3.25;;;;;;;;;;4990138;28;20073;-94
2023/05/06 16:44:51;;;;;;;3.65;3.30;;;;;;;;;;4992990;28;20037;-93
2023/05/06 16:50:13;;;;;;;5.32;3.00;;;;;;;;;;5011349;23;20070;-96
2023/05/06 16:52:38;;;;;;;4.78;3.83;;;;;;;;;;4954781;28;20026;-95
2023/05/06 16:55:05;;;;;;;3.28;2.97;;;;;;;;;;4950868;28;20191;-91
2023/05/06 16:57:30;;;;;;;3.78;3.30;;;;;;;;;;4949132;28;20106;-94
2023/05/06 16:59:56;;;;;;;3.30;3.00;;;;;;;;;;4955020;28;20113;-93
2023/05/06 17:02:21;;;;;;;5.47;3.50;;;;;;;;;;4952374;28;20021;-92
2023/05/06 17:04:47;;;;;;;4.00;3.30;;;;;;;;;;4947322;28;20416;-92
2023/05/06 17:07:12;;;;;;;3.70;3.40;;;;;;;;;;4966330;28;20022;-94
2023/05/06 17:09:38;;;;;;;3.85;3.55;;;;;;;;;;4946548;28;20033;-93
2023/05/06 17:12:03;;;;;;;5.15;3.90;;;;;;;;;;4948578;28;20026;-93
2023/05/06 17:14:30;;;;;;;5.03;3.90;;;;;;;;;;4949649;28;20708;-93
2023/05/06 17:16:55;;;;;;;4.40;4.00;;;;;;;;;;4949569;29;20080;-93
2023/05/06 17:27:35;;;;;;;4.82;3.78;;;;;;;;;;5108799;23;20064;-96
2023/05/06 17:30:01;;;;;;;6.13;3.90;;;;;;;;;;4943507;28;20094;-96
